Time;durP1;ratioP1;P1;durP2;ratioP2;P2;SDS_P1;SDS_P2;PMS_P1;PMS_P2;Temp;Humidity;BMP_temperature;BMP_pressure;BME280_temperature;BME280_humidity;BME280_pressure;Samples;Min_cycle;Max_cycle;Signal;HPM_P1;HPM_P2
2023/11/08 00:01:52;;;;;;;15.80;10.48;;;;;;;;;;5023373;28;20201;-71
2023/11/08 00:04:17;;;;;;;17.52;11.20;;;;;;;;;;5030895;28;20228;-71
2023/11/08 00:06:43;;;;;;;14.15;9.90;;;;;;;;;;5020222;28;20280;-70
2023/11/08 00:09:10;;;;;;;17.70;9.55;;;;;;;;;;5019741;28;20681;-70
2023/11/08 00:11:38;;;;;;;15.70;10.23;;;;;;;;;;5022142;28;20669;-69
2023/11/08 00:14:08;;;;;;;17.48;10.02;;;;;;;;;;5032419;28;20214;-70
2023/11/08 00:16:33;;;;;;;20.17;10.57;;;;;;;;;;5030593;28;20320;-71
2023/11/08 00:18:58;;;;;;;18.50;10.77;;;;;;;;;;5028877;28;20187;-71
2023/11/08 00:21:24;;;;;;;16.48;10.45;;;;;;;;;;5027432;28;20615;-71
2023/11/08 00:23:50;;;;;;;19.42;10.68;;;;;;;;;;5041241;28;20213;-72
2023/11/08 00:26:16;;;;;;;15.80;11.30;;;;;;;;;;5028780;28;20209;-74
2023/11/08 00:28:42;;;;;;;18.02;10.50;;;;;;;;;;5027510;28;20224;-73
2023/11/08 00:31:08;;;;;;;14.48;10.90;;;;;;;;;;5028640;28;20190;-73
2023/11/08 00:33:34;;;;;;;17.17;10.15;;;;;;;;;;5019687;28;20524;-73
2023/11/08 00:35:59;;;;;;;17.58;10.48;;;;;;;;;;5030915;28;20194;-72
2023/11/08 00:38:25;;;;;;;16.30;10.98;;;;;;;;;;5030593;28;20189;-72
2023/11/08 00:40:50;;;;;;;16.00;11.10;;;;;;;;;;5024013;28;20285;-71
2023/11/08 00:43:15;;;;;;;19.67;11.90;;;;;;;;;;5040619;28;20213;-71
2023/11/08 00:45:41;;;;;;;16.98;10.88;;;;;;;;;;5031300;28;20193;-72
2023/11/08 00:48:06;;;;;;;17.98;12.35;;;;;;;;;;5031312;28;20201;-72
2023/11/08 00:50:31;;;;;;;19.05;11.93;;;;;;;;;;5010324;28;20570;-73
2023/11/08 00:52:58;;;;;;;18.95;12.35;;;;;;;;;;5028080;28;20197;-74
2023/11/08 00:55:26;;;;;;;20.92;12.57;;;;;;;;;;5030826;28;20214;-72
2023/11/08 00:57:52;;;;;;;19.08;13.68;;;;;;;;;;5030287;28;20182;-72
2023/11/08 01:00:18;;;;;;;22.58;13.88;;;;;;;;;;5026386;28;20687;-72
2023/11/08 01:02:47;;;;;;;20.80;13.60;;;;;;;;;;5029908;28;20201;-72
2023/11/08 01:05:13;;;;;;;19.58;14.13;;;;;;;;;;5029920;28;20186;-73
2023/11/08 01:07:38;;;;;;;22.33;14.75;;;;;;;;;;5031025;28;20182;-71
2023/11/08 01:10:05;;;;;;;17.00;13.40;;;;;;;;;;5025064;28;20198;-72
2023/11/08 01:12:30;;;;;;;19.60;15.20;;;;;;;;;;5032618;28;20209;-72
2023/11/08 01:14:56;;;;;;;22.42;15.18;;;;;;;;;;5028292;28;20252;-72
2023/11/08 01:17:21;;;;;;;25.38;15.13;;;;;;;;;;5030064;28;20233;-72
2023/11/08 01:19:47;;;;;;;23.42;15.52;;;;;;;;;;5020228;28;20179;-72
2023/11/08 01:22:12;;;;;;;23.35;14.85;;;;;;;;;;5025196;28;20557;-71
2023/11/08 01:24:41;;;;;;;23.77;15.40;;;;;;;;;;5030414;28;20189;-71
2023/11/08 01:27:06;;;;;;;21.60;15.77;;;;;;;;;;5040336;28;20316;-71
2023/11/08 01:29:32;;;;;;;25.27;14.52;;;;;;;;;;5029221;28;20242;-71
2023/11/08 01:31:58;;;;;;;19.48;14.00;;;;;;;;;;5030694;28;20260;-71
2023/11/08 01:34:23;;;;;;;21.90;13.40;;;;;;;;;;5026108;28;20219;-70
2023/11/08 01:36:49;;;;;;;22.13;14.80;;;;;;;;;;5023199;28;20190;-71
2023/11/08 01:39:14;;;;;;;20.48;14.88;;;;;;;;;;5027423;28;20622;-71
2023/11/08 01:41:49;;;;;;;17.85;13.98;;;;;;;;;;5024107;28;20194;-71
2023/11/08 01:44:19;;;;;;;22.70;15.88;;;;;;;;;;5025307;28;20178;-70
2023/11/08 01:46:48;;;;;;;25.17;17.42;;;;;;;;;;5027198;28;20258;-70
2023/11/08 01:49:13;;;;;;;23.48;16.38;;;;;;;;;;5028334;28;20277;-70
2023/11/08 01:51:40;;;;;;;24.35;17.23;;;;;;;;;;5026310;28;20268;-70
2023/11/08 01:54:05;;;;;;;24.02;16.85;;;;;;;;;;5030532;28;20641;-70
2023/11/08 01:56:32;;;;;;;24.52;17.67;;;;;;;;;;5028793;28;20268;-70
2023/11/08 01:58:57;;;;;;;25.40;18.20;;;;;;;;;;5026805;28;20669;-69
2023/11/08 02:01:23;;;;;;;27.35;18.25;;;;;;;;;;5029434;28;20193;-69
2023/11/08 02:03:49;;;;;;;28.45;19.00;;;;;;;;;;5023529;28;20218;-69
2023/11/08 02:06:15;;;;;;;28.77;18.60;;;;;;;;;;5020810;28;20236;-69
2023/11/08 02:08:41;;;;;;;30.92;18.63;;;;;;;;;;5020506;28;20273;-70
2023/11/08 02:11:08;;;;;;;26.17;19.17;;;;;;;;;;5029384;28;20271;-69
2023/11/08 02:13:34;;;;;;;26.15;19.38;;;;;;;;;;5020328;28;20214;-68
2023/11/08 02:16:00;;;;;;;26.27;18.23;;;;;;;;;;5022647;28;20711;-68
2023/11/08 02:18:26;;;;;;;24.67;17.47;;;;;;;;;;5029294;28;20190;-69
2023/11/08 02:20:52;;;;;;;25.20;17.67;;;;;;;;;;5026839;28;20190;-70
2023/11/08 02:23:18;;;;;;;31.42;18.15;;;;;;;;;;5029563;28;20657;-69
2023/11/08 02:25:45;;;;;;;27.05;17.73;;;;;;;;;;5020441;28;20197;-69
2023/11/08 02:28:11;;;;;;;23.67;17.25;;;;;;;;;;5024716;28;20186;-69
2023/11/08 02:30:36;;;;;;;24.25;17.15;;;;;;;;;;5025595;28;20205;-69
2023/11/08 02:33:02;;;;;;;26.25;16.85;;;;;;;;;;5027510;28;20254;-69
2023/11/08 02:35:27;;;;;;;24.70;17.07;;;;;;;;;;5015583;28;20226;-69
2023/11/08 02:37:53;;;;;;;21.38;16.63;;;;;;;;;;5016802;28;20229;-68
2023/11/08 02:40:18;;;;;;;23.27;16.42;;;;;;;;;;5038217;28;20182;-69
2023/11/08 02:42:48;;;;;;;23.98;17.15;;;;;;;;;;5030802;28;20194;-69
2023/11/08 02:45:14;;;;;;;24.33;16.67;;;;;;;;;;5021169;28;20221;-69
2023/11/08 02:47:40;;;;;;;23.95;16.58;;;;;;;;;;5026584;28;20214;-70
2023/11/08 02:50:07;;;;;;;21.95;15.27;;;;;;;;;;5014841;28;20218;-69
2023/11/08 02:52:32;;;;;;;21.70;15.40;;;;;;;;;;5027849;28;20190;-69
2023/11/08 02:54:58;;;;;;;22.83;16.15;;;;;;;;;;5024658;28;20217;-69
2023/11/08 02:57:24;;;;;;;21.80;15.15;;;;;;;;;;5027482;28;20503;-69
2023/11/08 02:59:51;;;;;;;22.65;15.32;;;;;;;;;;5022198;28;20174;-69
2023/11/08 03:02:17;;;;;;;22.67;15.30;;;;;;;;;;5030492;28;20191;-68
2023/11/08 03:04:43;;;;;;;22.83;15.98;;;;;;;;;;5040482;28;20191;-68
2023/11/08 03:07:08;;;;;;;26.00;14.83;;;;;;;;;;5029556;28;20186;-68
2023/11/08 03:09:34;;;;;;;24.63;17.03;;;;;;;;;;5022591;28;20194;-69
2023/11/08 03:11:59;;;;;;;24.92;16.33;;;;;;;;;;5031862;28;20209;-69
2023/11/08 03:14:25;;;;;;;25.13;17.03;;;;;;;;;;5030348;28;20210;-68
2023/11/08 03:16:52;;;;;;;24.20;17.63;;;;;;;;;;5023521;28;20234;-68
2023/11/08 03:19:19;;;;;;;27.52;17.23;;;;;;;;;;5021872;28;20248;-69
2023/11/08 03:21:45;;;;;;;25.17;16.15;;;;;;;;;;5026986;28;20625;-68
2023/11/08 03:24:10;;;;;;;21.23;16.45;;;;;;;;;;5027729;28;20190;-68
2023/11/08 03:26:36;;;;;;;23.40;15.55;;;;;;;;;;5024475;28;20205;-69
2023/11/08 03:29:01;;;;;;;21.48;14.88;;;;;;;;;;5028072;28;20293;-70
2023/11/08 03:31:27;;;;;;;21.92;14.48;;;;;;;;;;5023554;28;20204;-72
2023/11/08 03:33:52;;;;;;;18.38;13.85;;;;;;;;;;5028516;28;20198;-72
2023/11/08 03:36:18;;;;;;;17.90;13.55;;;;;;;;;;5028060;28;20205;-73
2023/11/08 03:38:43;;;;;;;16.50;12.07;;;;;;;;;;5032091;28;20194;-73
2023/11/08 03:41:08;;;;;;;17.20;12.40;;;;;;;;;;5027880;28;20229;-74
2023/11/08 03:43:35;;;;;;;15.63;12.35;;;;;;;;;;5038920;28;20182;-73
2023/11/08 03:46:00;;;;;;;15.95;12.38;;;;;;;;;;5035703;28;20190;-73
2023/11/08 03:48:26;;;;;;;17.92;12.35;;;;;;;;;;5023311;28;20623;-71
2023/11/08 03:50:51;;;;;;;17.77;12.98;;;;;;;;;;5011969;28;20187;-72
2023/11/08 03:53:16;;;;;;;17.13;12.00;;;;;;;;;;5031339;28;20324;-73
2023/11/08 03:55:42;;;;;;;16.02;11.23;;;;;;;;;;5024311;28;20221;-73
2023/11/08 03:58:07;;;;;;;13.88;10.90;;;;;;;;;;5026937;28;20655;-73
2023/11/08 04:00:32;;;;;;;17.30;12.63;;;;;;;;;;5023578;28;20196;-72
2023/11/08 04:02:58;;;;;;;15.63;13.05;;;;;;;;;;5029034;28;20244;-72
2023/11/08 04:05:24;;;;;;;16.27;12.55;;;;;;;;;;5020472;28;20630;-74
2023/11/08 04:07:50;;;;;;;23.65;15.40;;;;;;;;;;5028138;28;20625;-72
2023/11/08 04:10:16;;;;;;;25.38;16.92;;;;;;;;;;5032041;28;20190;-72
2023/11/08 04:12:42;;;;;;;26.58;19.52;;;;;;;;;;5023856;28;20185;-71
2023/11/08 04:15:08;;;;;;;25.98;19.38;;;;;;;;;;5021354;28;20275;-71
2023/11/08 04:17:33;;;;;;;31.60;20.85;;;;;;;;;;5018424;28;20234;-73
2023/11/08 04:19:59;;;;;;;26.00;20.40;;;;;;;;;;5030452;28;20194;-73
2023/11/08 04:22:24;;;;;;;29.58;20.85;;;;;;;;;;5029275;28;20251;-73
2023/11/08 04:24:50;;;;;;;33.30;22.77;;;;;;;;;;5021339;28;20253;-73
2023/11/08 04:27:15;;;;;;;34.60;22.92;;;;;;;;;;5021717;28;20270;-74
2023/11/08 04:29:41;;;;;;;34.65;22.65;;;;;;;;;;5024985;28;20203;-73
2023/11/08 04:32:07;;;;;;;36.47;23.08;;;;;;;;;;5016758;28;20194;-73
2023/11/08 04:34:33;;;;;;;40.67;23.85;;;;;;;;;;5022119;28;20224;-72
2023/11/08 04:36:59;;;;;;;33.28;24.35;;;;;;;;;;5028711;28;20194;-72
2023/11/08 04:39:25;;;;;;;35.90;24.48;;;;;;;;;;5003329;28;20175;-72
2023/11/08 04:41:51;;;;;;;35.85;23.95;;;;;;;;;;5025817;28;20186;-71
2023/11/08 04:44:18;;;;;;;33.42;22.95;;;;;;;;;;5034903;28;20186;-71
2023/11/08 04:46:43;;;;;;;39.28;22.85;;;;;;;;;;5026824;28;20622;-72
2023/11/08 04:49:09;;;;;;;34.47;23.98;;;;;;;;;;5012623;28;20197;-72
2023/11/08 04:51:34;;;;;;;37.05;24.65;;;;;;;;;;5025037;28;20190;-72
2023/11/08 04:54:00;;;;;;;39.97;24.60;;;;;;;;;;5021061;28;20246;-72
2023/11/08 04:56:25;;;;;;;32.30;22.63;;;;;;;;;;5029377;28;20213;-73
2023/11/08 04:58:51;;;;;;;37.35;22.83;;;;;;;;;;5016037;28;20202;-71
2023/11/08 05:01:16;;;;;;;35.58;23.73;;;;;;;;;;5026627;28;20201;-71
2023/11/08 05:03:43;;;;;;;41.03;27.02;;;;;;;;;;5025589;28;20187;-71
2023/11/08 05:06:09;;;;;;;37.58;23.85;;;;;;;;;;5026266;28;20251;-71
2023/11/08 05:08:34;;;;;;;33.28;23.73;;;;;;;;;;5021962;28;20245;-72
2023/11/08 05:10:59;;;;;;;38.22;23.80;;;;;;;;;;5024676;28;20268;-71
2023/11/08 05:13:25;;;;;;;34.78;23.17;;;;;;;;;;5026735;28;20550;-70
2023/11/08 05:15:50;;;;;;;35.35;23.75;;;;;;;;;;5027008;28;20748;-71
2023/11/08 05:18:16;;;;;;;36.92;23.65;;;;;;;;;;5019920;28;20558;-71
2023/11/08 05:20:43;;;;;;;40.10;24.85;;;;;;;;;;5024894;28;20193;-70
2023/11/08 05:23:09;;;;;;;36.88;22.90;;;;;;;;;;5016715;28;20205;-70
2023/11/08 05:25:38;;;;;;;36.97;22.17;;;;;;;;;;5024512;28;20190;-69
2023/11/08 05:28:04;;;;;;;33.95;22.95;;;;;;;;;;5030281;28;20201;-70
2023/11/08 05:30:30;;;;;;;34.47;22.63;;;;;;;;;;5026241;28;20562;-71
2023/11/08 05:32:55;;;;;;;34.83;24.60;;;;;;;;;;5026522;28;20662;-69
2023/11/08 05:35:21;;;;;;;34.17;24.08;;;;;;;;;;5022881;28;20285;-69
2023/11/08 05:37:48;;;;;;;35.95;23.52;;;;;;;;;;5025862;28;20538;-69
2023/11/08 05:40:14;;;;;;;34.97;24.15;;;;;;;;;;5029910;28;20218;-69
2023/11/08 05:42:40;;;;;;;35.80;22.92;;;;;;;;;;5027116;28;20590;-69
2023/11/08 05:45:06;;;;;;;35.58;22.70;;;;;;;;;;5023846;28;20191;-69
2023/11/08 05:47:32;;;;;;;32.90;23.23;;;;;;;;;;5022218;28;20190;-70
2023/11/08 05:49:57;;;;;;;34.67;23.80;;;;;;;;;;5024620;28;20206;-69
2023/11/08 05:52:24;;;;;;;39.75;22.88;;;;;;;;;;5028705;28;20198;-68
2023/11/08 05:54:49;;;;;;;31.55;22.42;;;;;;;;;;5028673;28;20223;-69
2023/11/08 05:57:15;;;;;;;35.22;21.58;;;;;;;;;;5018659;28;20205;-69
2023/11/08 05:59:42;;;;;;;33.25;22.25;;;;;;;;;;5021847;28;20198;-68
2023/11/08 06:02:08;;;;;;;36.40;22.25;;;;;;;;;;5022666;28;20218;-69
2023/11/08 06:04:34;;;;;;;28.50;20.45;;;;;;;;;;5022079;28;20219;-70
2023/11/08 06:07:00;;;;;;;33.70;21.00;;;;;;;;;;5024677;28;20293;-69
2023/11/08 06:09:25;;;;;;;31.52;20.23;;;;;;;;;;5025051;28;20268;-68
2023/11/08 06:11:51;;;;;;;35.13;19.30;;;;;;;;;;5022871;28;20220;-70
2023/11/08 06:14:16;;;;;;;29.35;18.98;;;;;;;;;;5022144;28;20203;-69
2023/11/08 06:16:42;;;;;;;30.65;19.05;;;;;;;;;;5028359;28;20237;-70
2023/11/08 06:19:08;;;;;;;27.80;18.33;;;;;;;;;;5036250;28;20243;-70
2023/11/08 06:21:34;;;;;;;26.50;17.42;;;;;;;;;;5021247;28;20638;-69
2023/11/08 06:23:59;;;;;;;26.38;17.75;;;;;;;;;;5021609;28;20199;-69
2023/11/08 06:26:25;;;;;;;28.15;18.00;;;;;;;;;;5022493;28;20202;-68
2023/11/08 06:28:52;;;;;;;26.35;18.25;;;;;;;;;;5026143;28;20194;-70
2023/11/08 06:31:20;;;;;;;29.55;19.15;;;;;;;;;;5014422;28;20663;-68
2023/11/08 06:33:46;;;;;;;26.60;17.95;;;;;;;;;;5028495;28;20501;-70
2023/11/08 06:36:13;;;;;;;30.45;17.40;;;;;;;;;;5027645;28;20190;-67
2023/11/08 06:38:39;;;;;;;24.92;17.33;;;;;;;;;;5027935;28;20257;-69
2023/11/08 06:41:05;;;;;;;34.15;17.85;;;;;;;;;;5023982;28;20644;-69
2023/11/08 06:43:30;;;;;;;28.67;16.85;;;;;;;;;;5016022;28;20400;-69
2023/11/08 06:45:56;;;;;;;28.77;16.73;;;;;;;;;;5022439;28;20193;-69
2023/11/08 06:48:21;;;;;;;25.77;16.52;;;;;;;;;;5013249;28;20194;-69
2023/11/08 06:50:46;;;;;;;29.13;17.25;;;;;;;;;;5013706;28;20220;-68
2023/11/08 06:53:12;;;;;;;25.88;16.52;;;;;;;;;;5018579;28;20205;-69
2023/11/08 06:55:38;;;;;;;27.00;16.42;;;;;;;;;;5022188;28;20242;-69
2023/11/08 06:58:04;;;;;;;21.63;14.27;;;;;;;;;;5027823;28;20194;-68
2023/11/08 07:00:30;;;;;;;26.52;14.82;;;;;;;;;;5027265;28;20615;-69
2023/11/08 07:02:55;;;;;;;27.63;14.95;;;;;;;;;;4330056;28;10000814;-71
2023/11/08 07:05:21;;;;;;;26.90;16.08;;;;;;;;;;5023421;28;20194;-69
2023/11/08 07:07:47;;;;;;;24.58;15.32;;;;;;;;;;5018269;28;20213;-69
2023/11/08 07:10:13;;;;;;;21.33;14.63;;;;;;;;;;5026984;28;20256;-69
2023/11/08 07:12:40;;;;;;;24.33;14.18;;;;;;;;;;5020567;28;20209;-71
2023/11/08 07:15:07;;;;;;;19.83;13.82;;;;;;;;;;5017228;28;20222;-70
2023/11/08 07:17:34;;;;;;;22.40;15.00;;;;;;;;;;5015359;28;20713;-70
2023/11/08 07:20:00;;;;;;;27.35;14.38;;;;;;;;;;5019488;28;20199;-69
2023/11/08 07:22:25;;;;;;;23.90;13.65;;;;;;;;;;5022025;28;20189;-70
2023/11/08 07:24:51;;;;;;;32.60;14.85;;;;;;;;;;5016822;28;20272;-69
2023/11/08 07:27:17;;;;;;;25.67;12.95;;;;;;;;;;5018595;28;20596;-69
2023/11/08 07:29:43;;;;;;;20.15;12.88;;;;;;;;;;5020739;28;20244;-69
2023/11/08 07:32:12;;;;;;;20.48;13.35;;;;;;;;;;5032704;28;20801;-69
2023/11/08 07:34:38;;;;;;;25.42;13.27;;;;;;;;;;5021280;28;20261;-70
2023/11/08 07:37:03;;;;;;;20.77;12.70;;;;;;;;;;5026730;28;20230;-69
2023/11/08 07:39:28;;;;;;;21.50;13.68;;;;;;;;;;5029946;28;20198;-69
2023/11/08 07:41:54;;;;;;;21.67;12.80;;;;;;;;;;5028142;28;20198;-69
2023/11/08 07:44:20;;;;;;;19.92;11.35;;;;;;;;;;5028116;28;20190;-69
2023/11/08 07:46:45;;;;;;;18.55;11.65;;;;;;;;;;5027654;28;20248;-70
2023/11/08 07:49:11;;;;;;;20.70;12.35;;;;;;;;;;5025899;28;20182;-70
2023/11/08 07:51:36;;;;;;;22.33;11.80;;;;;;;;;;5024199;28;20232;-69
2023/11/08 07:54:01;;;;;;;20.15;11.15;;;;;;;;;;5023610;28;20526;-70
2023/11/08 07:56:28;;;;;;;23.73;10.80;;;;;;;;;;5029527;28;20704;-68
2023/11/08 07:58:53;;;;;;;17.35;9.50;;;;;;;;;;5027813;28;20198;-70
2023/11/08 08:01:18;;;;;;;18.70;9.95;;;;;;;;;;5027625;28;20190;-69
2023/11/08 08:03:46;;;;;;;14.57;8.98;;;;;;;;;;5017905;28;20183;-70
2023/11/08 08:06:11;;;;;;;19.73;9.70;;;;;;;;;;5022543;28;20249;-69
2023/11/08 08:08:36;;;;;;;14.20;8.68;;;;;;;;;;5029783;28;20194;-69
2023/11/08 08:11:03;;;;;;;18.45;8.18;;;;;;;;;;5025773;28;20555;-69
2023/11/08 08:13:28;;;;;;;14.60;8.10;;;;;;;;;;5031251;28;20245;-69
2023/11/08 08:15:54;;;;;;;17.30;6.90;;;;;;;;;;5015809;28;20242;-69
2023/11/08 08:18:19;;;;;;;11.95;6.93;;;;;;;;;;5026680;28;20223;-70
2023/11/08 08:20:45;;;;;;;11.73;6.68;;;;;;;;;;5028421;28;20190;-70
2023/11/08 08:23:10;;;;;;;17.75;5.82;;;;;;;;;;5032892;28;20277;-69
2023/11/08 08:25:42;;;;;;;13.43;6.10;;;;;;;;;;5031106;28;20276;-68
2023/11/08 08:28:08;;;;;;;9.13;5.80;;;;;;;;;;5030056;28;20225;-69
2023/11/08 08:30:34;;;;;;;9.32;5.78;;;;;;;;;;5021419;28;20189;-67
2023/11/08 08:33:04;;;;;;;12.38;5.95;;;;;;;;;;5029134;28;20194;-68
2023/11/08 08:35:30;;;;;;;7.18;5.10;;;;;;;;;;5026008;28;20214;-68
2023/11/08 08:37:56;;;;;;;7.65;5.00;;;;;;;;;;5026691;28;20658;-68
2023/11/08 08:40:21;;;;;;;10.32;5.80;;;;;;;;;;5025199;28;20198;-69
2023/11/08 08:42:47;;;;;;;8.55;4.93;;;;;;;;;;5025096;28;20351;-69
2023/11/08 08:45:13;;;;;;;10.48;5.10;;;;;;;;;;5025782;28;20216;-68
2023/11/08 08:47:40;;;;;;;8.55;4.93;;;;;;;;;;5016487;28;20186;-69
2023/11/08 08:50:11;;;;;;;10.50;4.45;;;;;;;;;;5025992;28;20212;-68
2023/11/08 08:52:37;;;;;;;8.35;4.50;;;;;;;;;;5009565;28;20199;-70
2023/11/08 08:55:03;;;;;;;10.75;5.03;;;;;;;;;;5028485;28;20743;-68
2023/11/08 08:57:28;;;;;;;11.35;5.18;;;;;;;;;;5015682;28;20194;-67
2023/11/08 08:59:54;;;;;;;7.47;4.43;;;;;;;;;;5018107;28;20713;-68
2023/11/08 09:02:19;;;;;;;6.60;4.13;;;;;;;;;;5039207;28;20201;-69
2023/11/08 09:04:45;;;;;;;8.23;4.28;;;;;;;;;;5026433;28;20356;-70
2023/11/08 09:07:11;;;;;;;8.27;4.35;;;;;;;;;;5028253;28;20182;-69
2023/11/08 09:09:36;;;;;;;10.48;4.07;;;;;;;;;;5033849;28;20192;-68
2023/11/08 09:12:02;;;;;;;12.55;4.35;;;;;;;;;;5036133;28;20543;-68
2023/11/08 09:14:28;;;;;;;10.27;4.20;;;;;;;;;;5028393;28;20214;-68
2023/11/08 09:16:54;;;;;;;8.48;4.38;;;;;;;;;;5019738;28;20226;-68
2023/11/08 09:19:20;;;;;;;10.13;4.78;;;;;;;;;;5017194;28;20201;-69
2023/11/08 09:21:46;;;;;;;6.40;3.47;;;;;;;;;;5023381;28;20191;-69
2023/11/08 09:24:12;;;;;;;8.02;3.80;;;;;;;;;;5012326;28;20237;-68
2023/11/08 09:26:40;;;;;;;8.95;3.47;;;;;;;;;;5036982;28;20182;-69
2023/11/08 09:29:05;;;;;;;8.35;3.80;;;;;;;;;;5023049;28;20257;-69
2023/11/08 09:31:31;;;;;;;6.40;3.40;;;;;;;;;;5027396;28;20234;-71
2023/11/08 09:33:56;;;;;;;6.93;3.80;;;;;;;;;;5030715;28;20205;-70
2023/11/08 09:36:25;;;;;;;10.25;3.28;;;;;;;;;;5030045;28;20558;-69
2023/11/08 09:38:51;;;;;;;11.07;3.70;;;;;;;;;;5021372;28;20189;-69
2023/11/08 09:41:18;;;;;;;9.25;3.60;;;;;;;;;;5037650;28;20193;-70
2023/11/08 09:43:47;;;;;;;8.70;3.72;;;;;;;;;;5028580;28;20288;-69
2023/11/08 09:46:13;;;;;;;7.55;3.10;;;;;;;;;;5015795;28;20183;-71
2023/11/08 09:48:39;;;;;;;6.38;3.20;;;;;;;;;;5041419;28;20549;-70
2023/11/08 09:51:06;;;;;;;10.07;3.38;;;;;;;;;;5030874;28;20677;-69
2023/11/08 09:53:32;;;;;;;7.70;3.25;;;;;;;;;;5029936;28;20212;-69
2023/11/08 09:56:01;;;;;;;12.02;4.35;;;;;;;;;;5026439;28;20681;-69
2023/11/08 09:58:27;;;;;;;11.57;3.42;;;;;;;;;;5023456;28;20195;-68
2023/11/08 10:00:56;;;;;;;4.00;3.28;;;;;;;;;;5014488;28;20498;-70
2023/11/08 10:03:25;;;;;;;7.53;3.40;;;;;;;;;;5029315;28;20243;-70
2023/11/08 10:05:51;;;;;;;9.75;2.80;;;;;;;;;;5020145;28;20190;-74
2023/11/08 10:08:18;;;;;;;7.35;2.50;;;;;;;;;;5030048;28;20228;-74
2023/11/08 10:10:48;;;;;;;7.32;2.78;;;;;;;;;;5027854;28;20264;-70
2023/11/08 10:13:17;;;;;;;3.80;2.38;;;;;;;;;;5030422;28;20710;-68
2023/11/08 10:15:42;;;;;;;8.80;2.83;;;;;;;;;;5027160;28;20225;-68
2023/11/08 10:18:08;;;;;;;6.22;2.50;;;;;;;;;;5029190;28;20244;-71
2023/11/08 10:20:37;;;;;;;8.20;3.00;;;;;;;;;;5017093;28;20187;-71
2023/11/08 10:23:05;;;;;;;8.25;2.42;;;;;;;;;;5028252;28;20217;-69
2023/11/08 10:25:31;;;;;;;10.52;2.72;;;;;;;;;;5038596;28;20189;-69
2023/11/08 10:28:07;;;;;;;8.18;2.63;;;;;;;;;;5018621;28;20548;-72
2023/11/08 10:30:39;;;;;;;6.05;2.80;;;;;;;;;;5029877;28;20205;-71
2023/11/08 10:33:14;;;;;;;9.10;2.47;;;;;;;;;;5028448;28;20186;-68
2023/11/08 10:35:41;;;;;;;8.00;2.65;;;;;;;;;;5021562;28;20255;-69
2023/11/08 10:38:09;;;;;;;8.98;2.70;;;;;;;;;;5029216;28;20201;-69
2023/11/08 10:40:35;;;;;;;9.93;2.65;;;;;;;;;;5034088;28;20192;-70
2023/11/08 10:43:02;;;;;;;4.57;2.40;;;;;;;;;;5033774;28;20186;-68
2023/11/08 10:45:29;;;;;;;7.78;2.15;;;;;;;;;;5011569;28;20274;-70
2023/11/08 10:47:55;;;;;;;8.15;2.33;;;;;;;;;;5025627;28;20515;-68
2023/11/08 10:50:21;;;;;;;8.57;2.38;;;;;;;;;;5026029;28;20183;-71
2023/11/08 10:52:46;;;;;;;7.38;2.30;;;;;;;;;;5009491;28;20260;-69
2023/11/08 10:55:12;;;;;;;6.13;2.20;;;;;;;;;;5027426;28;20245;-69
2023/11/08 10:57:42;;;;;;;5.82;2.00;;;;;;;;;;5036837;28;20198;-70
2023/11/08 11:00:08;;;;;;;7.43;2.15;;;;;;;;;;5025067;28;20229;-69
2023/11/08 11:02:37;;;;;;;7.47;2.20;;;;;;;;;;5026647;28;20232;-73
2023/11/08 11:05:08;;;;;;;9.60;2.13;;;;;;;;;;5029770;28;20182;-69
2023/11/08 11:07:41;;;;;;;8.82;2.00;;;;;;;;;;5037828;28;20281;-72
2023/11/08 11:10:08;;;;;;;6.85;2.20;;;;;;;;;;5034716;28;20200;-70
2023/11/08 11:12:45;;;;;;;9.82;2.10;;;;;;;;;;5032510;28;20240;-70
2023/11/08 11:15:35;;;;;;;8.63;2.47;;;;;;;;;;5032391;28;20696;-70
2023/11/08 11:18:03;;;;;;;7.72;2.17;;;;;;;;;;5001109;28;20292;-74
2023/11/08 11:20:36;;;;;;;7.20;2.10;;;;;;;;;;5043667;28;20193;-69
2023/11/08 11:23:04;;;;;;;7.20;2.25;;;;;;;;;;5031223;28;20193;-73
2023/11/08 11:25:47;;;;;;;6.00;2.38;;;;;;;;;;5032913;28;20194;-71
2023/11/08 11:28:13;;;;;;;6.55;2.33;;;;;;;;;;5031915;28;20197;-70
2023/11/08 11:30:38;;;;;;;7.50;1.90;;;;;;;;;;5030388;28;20190;-71
2023/11/08 11:33:05;;;;;;;7.60;2.08;;;;;;;;;;5031071;28;20182;-70
2023/11/08 11:35:30;;;;;;;10.95;2.33;;;;;;;;;;5030232;28;20302;-69
2023/11/08 11:38:07;;;;;;;7.93;2.38;;;;;;;;;;5031119;28;20768;-70
2023/11/08 11:40:36;;;;;;;7.43;1.80;;;;;;;;;;5021223;28;20197;-72
2023/11/08 11:43:02;;;;;;;9.98;2.53;;;;;;;;;;5031400;28;20235;-70
2023/11/08 11:45:30;;;;;;;10.63;2.10;;;;;;;;;;5022042;28;20600;-70
2023/11/08 11:47:57;;;;;;;11.52;2.13;;;;;;;;;;5032353;28;20508;-73
2023/11/08 11:50:27;;;;;;;5.70;1.88;;;;;;;;;;5020428;28;20194;-70
2023/11/08 11:52:52;;;;;;;7.82;1.60;;;;;;;;;;5024767;28;20266;-70
2023/11/08 11:55:19;;;;;;;6.60;2.03;;;;;;;;;;5025031;28;20377;-70
2023/11/08 11:57:45;;;;;;;8.10;1.73;;;;;;;;;;5021223;28;20188;-70
2023/11/08 12:00:11;;;;;;;6.53;1.42;;;;;;;;;;5029078;28;20201;-70
2023/11/08 12:02:37;;;;;;;9.07;1.67;;;;;;;;;;5022270;28;20207;-73
2023/11/08 12:05:03;;;;;;;13.43;1.42;;;;;;;;;;5034805;28;20194;-69
2023/11/08 12:07:29;;;;;;;8.10;1.65;;;;;;;;;;5030883;28;20197;-71
2023/11/08 12:09:55;;;;;;;7.20;1.45;;;;;;;;;;5037782;28;20183;-71
2023/11/08 12:12:33;;;;;;;7.28;1.30;;;;;;;;;;5030743;28;20588;-70
2023/11/08 12:15:12;;;;;;;5.45;1.63;;;;;;;;;;5019374;28;20217;-71
2023/11/08 12:17:37;;;;;;;6.75;1.73;;;;;;;;;;5027980;28;20225;-71
2023/11/08 12:20:03;;;;;;;5.72;1.55;;;;;;;;;;5029939;28;20625;-69
2023/11/08 12:22:30;;;;;;;7.43;1.65;;;;;;;;;;5028063;28;20212;-70
2023/11/08 12:24:56;;;;;;;10.98;1.80;;;;;;;;;;5025210;28;20194;-70
2023/11/08 12:27:21;;;;;;;9.15;1.50;;;;;;;;;;5024502;28;20204;-70
2023/11/08 12:29:47;;;;;;;7.70;1.95;;;;;;;;;;5018819;28;20194;-71
2023/11/08 12:32:12;;;;;;;5.63;1.83;;;;;;;;;;5017682;28;20246;-73
2023/11/08 12:34:38;;;;;;;6.78;1.92;;;;;;;;;;5044112;28;20649;-71
2023/11/08 12:37:05;;;;;;;9.75;1.83;;;;;;;;;;5024533;28;20265;-71
2023/11/08 12:39:30;;;;;;;5.93;1.48;;;;;;;;;;5024699;28;20556;-70
2023/11/08 12:41:56;;;;;;;7.68;2.00;;;;;;;;;;5025825;28;20217;-69
2023/11/08 12:44:23;;;;;;;6.65;1.60;;;;;;;;;;5024536;28;20244;-70
2023/11/08 12:46:48;;;;;;;7.60;1.90;;;;;;;;;;5023676;28;20194;-71
2023/11/08 12:49:23;;;;;;;8.32;1.63;;;;;;;;;;5029722;28;20336;-72
2023/11/08 12:51:48;;;;;;;4.70;1.45;;;;;;;;;;5029449;28;20186;-73
2023/11/08 12:54:15;;;;;;;7.57;1.90;;;;;;;;;;5016802;28;20264;-71
2023/11/08 12:56:41;;;;;;;8.30;1.90;;;;;;;;;;5028337;28;20190;-71
2023/11/08 12:59:15;;;;;;;7.85;1.73;;;;;;;;;;5027410;28;20202;-74
2023/11/08 13:01:42;;;;;;;11.25;2.40;;;;;;;;;;5026401;28;20200;-71
2023/11/08 13:04:07;;;;;;;5.88;1.48;;;;;;;;;;5025844;28;20430;-71
2023/11/08 13:06:33;;;;;;;11.23;1.90;;;;;;;;;;5025437;28;20497;-69
2023/11/08 13:08:59;;;;;;;9.05;2.35;;;;;;;;;;5020643;28;20245;-70
2023/11/08 13:11:25;;;;;;;5.43;1.52;;;;;;;;;;4334128;28;10000703;-70
2023/11/08 13:13:51;;;;;;;4.53;1.63;;;;;;;;;;5033677;28;20689;-72
2023/11/08 13:16:17;;;;;;;9.13;1.60;;;;;;;;;;5018066;28;20237;-70
2023/11/08 13:18:43;;;;;;;6.82;1.67;;;;;;;;;;5027166;28;20192;-70
2023/11/08 13:21:08;;;;;;;7.50;1.98;;;;;;;;;;5027807;28;20189;-72
2023/11/08 13:23:33;;;;;;;5.30;1.55;;;;;;;;;;5024382;28;20267;-70
2023/11/08 13:25:59;;;;;;;10.25;2.00;;;;;;;;;;5018842;28;20218;-69
2023/11/08 13:28:24;;;;;;;6.18;1.33;;;;;;;;;;5019561;28;20687;-71
2023/11/08 13:30:51;;;;;;;8.55;1.45;;;;;;;;;;5023104;28;20206;-70
2023/11/08 13:33:18;;;;;;;10.60;1.50;;;;;;;;;;5025147;28;20233;-70
2023/11/08 13:35:43;;;;;;;7.82;1.60;;;;;;;;;;5025678;28;20209;-70
2023/11/08 13:38:10;;;;;;;7.72;1.73;;;;;;;;;;5024110;28;20198;-71
2023/11/08 13:40:36;;;;;;;6.03;1.33;;;;;;;;;;5026612;28;20221;-72
2023/11/08 13:43:02;;;;;;;7.20;1.30;;;;;;;;;;5027541;28;20577;-70
2023/11/08 13:45:27;;;;;;;8.13;1.70;;;;;;;;;;5026197;28;20198;-72
2023/11/08 13:47:53;;;;;;;4.95;1.15;;;;;;;;;;5025739;28;20272;-69
2023/11/08 13:50:18;;;;;;;9.68;2.35;;;;;;;;;;5017391;28;20216;-70
2023/11/08 13:52:45;;;;;;;7.10;1.70;;;;;;;;;;5021504;28;20208;-69
2023/11/08 13:55:11;;;;;;;7.78;2.00;;;;;;;;;;5025350;28;20214;-71
2023/11/08 13:57:37;;;;;;;4.85;1.70;;;;;;;;;;5026536;28;20254;-71
2023/11/08 14:00:09;;;;;;;5.57;1.67;;;;;;;;;;5026647;28;20186;-69
2023/11/08 14:02:35;;;;;;;5.75;1.85;;;;;;;;;;5018928;28;20628;-68
2023/11/08 14:05:05;;;;;;;5.03;1.55;;;;;;;;;;5025614;28;20274;-69
2023/11/08 14:07:31;;;;;;;14.48;2.50;;;;;;;;;;5026704;28;20194;-70
2023/11/08 14:09:58;;;;;;;8.88;1.77;;;;;;;;;;5015200;28;20182;-72
2023/11/08 14:12:25;;;;;;;5.85;1.38;;;;;;;;;;5023247;28;20193;-69
2023/11/08 14:14:50;;;;;;;9.75;1.80;;;;;;;;;;5019721;28;20312;-73
2023/11/08 14:17:19;;;;;;;5.78;1.40;;;;;;;;;;5016675;28;20626;-72
2023/11/08 14:19:46;;;;;;;6.60;1.30;;;;;;;;;;5024086;28;20182;-70
2023/11/08 14:22:12;;;;;;;7.97;1.80;;;;;;;;;;5020923;28;20209;-70